sensor_id;sensor_type;location;lat;lon;timestamp;P1;durP1;ratioP1;P2;durP2;ratioP2
17171;SDS011;8701;50.150;8.756;2023-06-19T00:02:08;6.57;;;5.77;;
17171;SDS011;8701;50.150;8.756;2023-06-19T00:06:10;9.37;;;6.43;;
17171;SDS011;8701;50.150;8.756;2023-06-19T00:10:13;6.50;;;5.87;;
17171;SDS011;8701;50.150;8.756;2023-06-19T00:14:16;6.50;;;5.80;;
17171;SDS011;8701;50.150;8.756;2023-06-19T00:18:18;9.00;;;6.73;;
17171;SDS011;8701;50.150;8.756;2023-06-19T00:22:21;8.13;;;7.33;;
17171;SDS011;8701;50.150;8.756;2023-06-19T00:26:23;7.53;;;6.73;;
17171;SDS011;8701;50.150;8.756;2023-06-19T00:30:27;8.47;;;6.93;;
17171;SDS011;8701;50.150;8.756;2023-06-19T00:34:33;7.07;;;6.37;;
17171;SDS011;8701;50.150;8.756;2023-06-19T00:38:37;8.30;;;6.50;;
17171;SDS011;8701;50.150;8.756;2023-06-19T00:42:39;8.90;;;6.90;;
17171;SDS011;8701;50.150;8.756;2023-06-19T00:46:43;6.87;;;6.17;;
17171;SDS011;8701;50.150;8.756;2023-06-19T00:50:46;8.73;;;7.03;;
17171;SDS011;8701;50.150;8.756;2023-06-19T00:54:48;7.57;;;6.80;;
17171;SDS011;8701;50.150;8.756;2023-06-19T00:58:50;7.50;;;6.70;;
17171;SDS011;8701;50.150;8.756;2023-06-19T01:02:55;7.50;;;6.73;;
17171;SDS011;8701;50.150;8.756;2023-06-19T01:07:00;7.90;;;7.10;;
17171;SDS011;8701;50.150;8.756;2023-06-19T01:11:09;7.47;;;6.30;;
17171;SDS011;8701;50.150;8.756;2023-06-19T01:15:18;7.50;;;6.67;;
17171;SDS011;8701;50.150;8.756;2023-06-19T01:19:22;7.97;;;7.07;;
17171;SDS011;8701;50.150;8.756;2023-06-19T01:23:27;8.30;;;7.23;;
17171;SDS011;8701;50.150;8.756;2023-06-19T01:27:29;7.20;;;6.50;;
17171;SDS011;8701;50.150;8.756;2023-06-19T01:31:35;8.17;;;6.20;;
17171;SDS011;8701;50.150;8.756;2023-06-19T01:35:43;8.40;;;7.43;;
17171;SDS011;8701;50.150;8.756;2023-06-19T01:39:49;9.03;;;6.67;;
17171;SDS011;8701;50.150;8.756;2023-06-19T01:43:54;7.77;;;6.97;;
17171;SDS011;8701;50.150;8.756;2023-06-19T01:47:56;8.53;;;7.70;;
17171;SDS011;8701;50.150;8.756;2023-06-19T01:51:59;8.70;;;7.03;;
17171;SDS011;8701;50.150;8.756;2023-06-19T01:56:03;8.60;;;7.27;;
17171;SDS011;8701;50.150;8.756;2023-06-19T02:00:06;6.90;;;6.20;;
17171;SDS011;8701;50.150;8.756;2023-06-19T02:04:14;8.73;;;7.83;;
17171;SDS011;8701;50.150;8.756;2023-06-19T02:08:16;10.13;;;8.23;;
17171;SDS011;8701;50.150;8.756;2023-06-19T02:12:20;8.87;;;7.80;;
17171;SDS011;8701;50.150;8.756;2023-06-19T02:16:22;9.03;;;7.60;;
17171;SDS011;8701;50.150;8.756;2023-06-19T02:20:24;11.63;;;7.57;;
17171;SDS011;8701;50.150;8.756;2023-06-19T02:24:30;9.77;;;7.63;;
17171;SDS011;8701;50.150;8.756;2023-06-19T02:28:34;9.47;;;8.37;;
17171;SDS011;8701;50.150;8.756;2023-06-19T02:32:36;9.53;;;8.30;;
17171;SDS011;8701;50.150;8.756;2023-06-19T02:36:38;9.60;;;7.97;;
17171;SDS011;8701;50.150;8.756;2023-06-19T02:40:40;9.10;;;8.17;;
17171;SDS011;8701;50.150;8.756;2023-06-19T02:44:46;8.63;;;7.63;;
17171;SDS011;8701;50.150;8.756;2023-06-19T02:48:48;9.97;;;8.00;;
17171;SDS011;8701;50.150;8.756;2023-06-19T02:52:50;10.10;;;7.50;;
17171;SDS011;8701;50.150;8.756;2023-06-19T02:56:52;13.03;;;8.47;;
17171;SDS011;8701;50.150;8.756;2023-06-19T03:00:56;8.93;;;8.00;;
17171;SDS011;8701;50.150;8.756;2023-06-19T03:04:58;12.50;;;8.00;;
17171;SDS011;8701;50.150;8.756;2023-06-19T03:09:01;11.83;;;7.77;;
17171;SDS011;8701;50.150;8.756;2023-06-19T03:13:03;8.47;;;7.57;;
17171;SDS011;8701;50.150;8.756;2023-06-19T03:17:08;10.10;;;8.10;;
17171;SDS011;8701;50.150;8.756;2023-06-19T03:21:10;14.27;;;7.60;;
17171;SDS011;8701;50.150;8.756;2023-06-19T03:25:12;8.53;;;7.37;;
17171;SDS011;8701;50.150;8.756;2023-06-19T03:29:15;11.40;;;9.53;;
17171;SDS011;8701;50.150;8.756;2023-06-19T03:33:28;9.33;;;7.60;;
17171;SDS011;8701;50.150;8.756;2023-06-19T03:37:31;10.57;;;7.40;;
17171;SDS011;8701;50.150;8.756;2023-06-19T03:41:35;13.67;;;7.90;;
17171;SDS011;8701;50.150;8.756;2023-06-19T03:45:37;8.23;;;6.80;;
17171;SDS011;8701;50.150;8.756;2023-06-19T03:49:41;8.70;;;6.00;;
17171;SDS011;8701;50.150;8.756;2023-06-19T03:53:43;7.20;;;6.50;;
17171;SDS011;8701;50.150;8.756;2023-06-19T03:57:46;6.63;;;5.93;;
17171;SDS011;8701;50.150;8.756;2023-06-19T04:01:48;6.73;;;5.63;;
17171;SDS011;8701;50.150;8.756;2023-06-19T04:05:53;7.73;;;5.47;;
17171;SDS011;8701;50.150;8.756;2023-06-19T04:09:55;8.00;;;6.23;;
17171;SDS011;8701;50.150;8.756;2023-06-19T04:13:57;7.33;;;6.63;;
17171;SDS011;8701;50.150;8.756;2023-06-19T04:17:59;14.83;;;7.20;;
17171;SDS011;8701;50.150;8.756;2023-06-19T04:22:03;9.37;;;7.13;;
17171;SDS011;8701;50.150;8.756;2023-06-19T04:26:05;9.53;;;7.13;;
17171;SDS011;8701;50.150;8.756;2023-06-19T04:30:08;10.00;;;7.33;;
17171;SDS011;8701;50.150;8.756;2023-06-19T04:34:10;7.50;;;6.70;;
17171;SDS011;8701;50.150;8.756;2023-06-19T04:38:16;8.60;;;7.07;;
17171;SDS011;8701;50.150;8.756;2023-06-19T04:42:18;9.73;;;6.97;;
17171;SDS011;8701;50.150;8.756;2023-06-19T04:46:21;11.20;;;6.73;;
17171;SDS011;8701;50.150;8.756;2023-06-19T04:50:23;8.70;;;6.70;;
17171;SDS011;8701;50.150;8.756;2023-06-19T04:54:26;7.73;;;6.23;;
17171;SDS011;8701;50.150;8.756;2023-06-19T04:58:29;8.10;;;6.40;;
17171;SDS011;8701;50.150;8.756;2023-06-19T05:02:32;6.03;;;5.43;;
17171;SDS011;8701;50.150;8.756;2023-06-19T05:06:34;7.83;;;5.97;;
17171;SDS011;8701;50.150;8.756;2023-06-19T05:10:38;6.30;;;5.70;;
17171;SDS011;8701;50.150;8.756;2023-06-19T05:14:41;9.47;;;5.10;;
17171;SDS011;8701;50.150;8.756;2023-06-19T05:18:43;7.20;;;5.00;;
17171;SDS011;8701;50.150;8.756;2023-06-19T05:22:45;6.23;;;5.10;;
17171;SDS011;8701;50.150;8.756;2023-06-19T05:26:49;8.60;;;5.67;;
17171;SDS011;8701;50.150;8.756;2023-06-19T05:30:51;5.47;;;4.90;;
17171;SDS011;8701;50.150;8.756;2023-06-19T05:34:53;5.93;;;5.30;;
17171;SDS011;8701;50.150;8.756;2023-06-19T05:38:55;6.87;;;5.87;;
17171;SDS011;8701;50.150;8.756;2023-06-19T05:42:59;10.23;;;4.90;;
17171;SDS011;8701;50.150;8.756;2023-06-19T05:47:01;8.07;;;5.37;;
17171;SDS011;8701;50.150;8.756;2023-06-19T05:51:03;9.93;;;5.87;;
17171;SDS011;8701;50.150;8.756;2023-06-19T05:55:05;6.73;;;5.10;;
17171;SDS011;8701;50.150;8.756;2023-06-19T05:59:09;6.90;;;4.80;;
17171;SDS011;8701;50.150;8.756;2023-06-19T06:03:15;5.63;;;4.27;;
17171;SDS011;8701;50.150;8.756;2023-06-19T06:07:17;5.63;;;4.43;;
17171;SDS011;8701;50.150;8.756;2023-06-19T06:11:19;5.10;;;4.40;;
17171;SDS011;8701;50.150;8.756;2023-06-19T06:15:23;4.50;;;4.10;;
17171;SDS011;8701;50.150;8.756;2023-06-19T06:19:25;5.00;;;4.50;;
17171;SDS011;8701;50.150;8.756;2023-06-19T06:23:27;5.23;;;4.70;;
17171;SDS011;8701;50.150;8.756;2023-06-19T06:27:29;6.53;;;4.73;;
17171;SDS011;8701;50.150;8.756;2023-06-19T06:31:33;7.60;;;4.43;;
17171;SDS011;8701;50.150;8.756;2023-06-19T06:35:35;6.63;;;4.93;;
17171;SDS011;8701;50.150;8.756;2023-06-19T06:39:37;6.83;;;4.80;;
17171;SDS011;8701;50.150;8.756;2023-06-19T06:43:40;5.00;;;4.50;;
17171;SDS011;8701;50.150;8.756;2023-06-19T06:47:44;9.10;;;4.20;;
17171;SDS011;8701;50.150;8.756;2023-06-19T06:51:46;7.13;;;4.53;;
17171;SDS011;8701;50.150;8.756;2023-06-19T06:55:49;4.37;;;3.97;;
17171;SDS011;8701;50.150;8.756;2023-06-19T06:59:51;9.03;;;3.73;;
17171;SDS011;8701;50.150;8.756;2023-06-19T07:03:55;5.70;;;4.00;;
17171;SDS011;8701;50.150;8.756;2023-06-19T07:07:57;12.10;;;4.03;;
17171;SDS011;8701;50.150;8.756;2023-06-19T07:11:59;4.00;;;3.60;;
17171;SDS011;8701;50.150;8.756;2023-06-19T07:16:02;7.33;;;3.60;;
17171;SDS011;8701;50.150;8.756;2023-06-19T07:20:07;3.93;;;3.53;;
17171;SDS011;8701;50.150;8.756;2023-06-19T07:24:10;4.90;;;3.80;;
17171;SDS011;8701;50.150;8.756;2023-06-19T07:28:12;4.03;;;3.63;;
17171;SDS011;8701;50.150;8.756;2023-06-19T07:32:15;4.13;;;3.33;;
17171;SDS011;8701;50.150;8.756;2023-06-19T07:36:18;3.30;;;3.00;;
17171;SDS011;8701;50.150;8.756;2023-06-19T07:40:20;4.23;;;3.30;;
17171;SDS011;8701;50.150;8.756;2023-06-19T07:44:23;5.73;;;3.13;;
17171;SDS011;8701;50.150;8.756;2023-06-19T07:48:25;4.80;;;3.67;;
17171;SDS011;8701;50.150;8.756;2023-06-19T07:52:28;8.63;;;3.53;;
17171;SDS011;8701;50.150;8.756;2023-06-19T07:56:30;3.37;;;3.07;;
17171;SDS011;8701;50.150;8.756;2023-06-19T08:00:34;3.97;;;3.50;;
17171;SDS011;8701;50.150;8.756;2023-06-19T08:04:36;3.73;;;3.40;;
17171;SDS011;8701;50.150;8.756;2023-06-19T08:08:39;8.63;;;3.20;;
17171;SDS011;8701;50.150;8.756;2023-06-19T08:12:42;4.13;;;3.30;;
17171;SDS011;8701;50.150;8.756;2023-06-19T08:16:45;3.80;;;3.43;;
17171;SDS011;8701;50.150;8.756;2023-06-19T08:20:47;3.13;;;2.93;;
17171;SDS011;8701;50.150;8.756;2023-06-19T08:24:51;3.70;;;3.40;;
17171;SDS011;8701;50.150;8.756;2023-06-19T08:28:53;3.67;;;3.37;;
17171;SDS011;8701;50.150;8.756;2023-06-19T08:32:55;3.67;;;3.37;;
17171;SDS011;8701;50.150;8.756;2023-06-19T08:36:58;3.70;;;3.40;;
17171;SDS011;8701;50.150;8.756;2023-06-19T08:41:01;3.80;;;3.20;;
17171;SDS011;8701;50.150;8.756;2023-06-19T08:45:04;3.10;;;2.90;;
17171;SDS011;8701;50.150;8.756;2023-06-19T08:49:07;4.30;;;2.80;;
17171;SDS011;8701;50.150;8.756;2023-06-19T08:53:11;3.40;;;2.90;;
17171;SDS011;8701;50.150;8.756;2023-06-19T08:57:15;3.03;;;2.73;;
17171;SDS011;8701;50.150;8.756;2023-06-19T09:01:17;3.20;;;2.80;;
17171;SDS011;8701;50.150;8.756;2023-06-19T09:05:25;3.33;;;2.90;;
17171;SDS011;8701;50.150;8.756;2023-06-19T09:09:27;3.40;;;3.10;;
17171;SDS011;8701;50.150;8.756;2023-06-19T09:13:31;3.57;;;3.27;;
17171;SDS011;8701;50.150;8.756;2023-06-19T09:17:35;3.27;;;3.07;;
17171;SDS011;8701;50.150;8.756;2023-06-19T09:21:48;3.33;;;3.03;;
17171;SDS011;8701;50.150;8.756;2023-06-19T09:25:52;3.80;;;3.50;;
17171;SDS011;8701;50.150;8.756;2023-06-19T09:29:57;5.03;;;3.17;;
17171;SDS011;8701;50.150;8.756;2023-06-19T09:34:00;2.80;;;2.60;;
17171;SDS011;8701;50.150;8.756;2023-06-19T09:38:02;6.77;;;3.37;;
17171;SDS011;8701;50.150;8.756;2023-06-19T09:42:06;3.80;;;3.40;;
17171;SDS011;8701;50.150;8.756;2023-06-19T09:46:11;6.03;;;2.80;;
17171;SDS011;8701;50.150;8.756;2023-06-19T09:50:15;4.53;;;3.60;;
17171;SDS011;8701;50.150;8.756;2023-06-19T09:54:21;6.33;;;3.20;;
17171;SDS011;8701;50.150;8.756;2023-06-19T09:58:24;3.70;;;3.40;;
17171;SDS011;8701;50.150;8.756;2023-06-19T10:02:28;3.73;;;3.33;;
17171;SDS011;8701;50.150;8.756;2023-06-19T10:06:31;4.43;;;3.57;;
17171;SDS011;8701;50.150;8.756;2023-06-19T10:10:33;3.83;;;3.53;;
17171;SDS011;8701;50.150;8.756;2023-06-19T10:14:44;5.43;;;3.97;;
17171;SDS011;8701;50.150;8.756;2023-06-19T10:18:50;8.03;;;3.70;;
17171;SDS011;8701;50.150;8.756;2023-06-19T10:22:53;5.23;;;2.90;;
17171;SDS011;8701;50.150;8.756;2023-06-19T10:26:59;2.90;;;2.70;;
17171;SDS011;8701;50.150;8.756;2023-06-19T10:31:06;3.63;;;3.33;;
17171;SDS011;8701;50.150;8.756;2023-06-19T10:35:12;3.80;;;3.40;;
17171;SDS011;8701;50.150;8.756;2023-06-19T10:39:14;3.40;;;3.10;;
17171;SDS011;8701;50.150;8.756;2023-06-19T10:43:19;3.33;;;3.13;;
17171;SDS011;8701;50.150;8.756;2023-06-19T10:47:22;4.77;;;3.50;;
17171;SDS011;8701;50.150;8.756;2023-06-19T10:51:26;3.83;;;3.10;;
17171;SDS011;8701;50.150;8.756;2023-06-19T10:55:28;3.70;;;3.40;;
17171;SDS011;8701;50.150;8.756;2023-06-19T10:59:31;4.10;;;3.70;;
17171;SDS011;8701;50.150;8.756;2023-06-19T11:03:35;3.70;;;3.07;;
17171;SDS011;8701;50.150;8.756;2023-06-19T11:07:39;4.83;;;3.93;;
17171;SDS011;8701;50.150;8.756;2023-06-19T11:11:43;4.00;;;3.60;;
17171;SDS011;8701;50.150;8.756;2023-06-19T11:15:47;4.17;;;3.73;;
17171;SDS011;8701;50.150;8.756;2023-06-19T11:19:51;4.77;;;3.63;;
17171;SDS011;8701;50.150;8.756;2023-06-19T11:23:54;5.00;;;3.50;;
17171;SDS011;8701;50.150;8.756;2023-06-19T11:28:00;3.90;;;3.60;;
17171;SDS011;8701;50.150;8.756;2023-06-19T11:32:05;5.03;;;3.73;;
17171;SDS011;8701;50.150;8.756;2023-06-19T11:36:12;5.30;;;3.80;;
17171;SDS011;8701;50.150;8.756;2023-06-19T11:40:16;4.80;;;3.73;;
17171;SDS011;8701;50.150;8.756;2023-06-19T11:44:21;4.50;;;3.87;;
17171;SDS011;8701;50.150;8.756;2023-06-19T11:48:24;4.70;;;3.77;;
17171;SDS011;8701;50.150;8.756;2023-06-19T11:52:27;6.40;;;3.77;;
17171;SDS011;8701;50.150;8.756;2023-06-19T11:56:32;8.23;;;3.90;;
17171;SDS011;8701;50.150;8.756;2023-06-19T12:00:35;4.67;;;3.90;;
17171;SDS011;8701;50.150;8.756;2023-06-19T12:04:38;6.57;;;3.90;;
17171;SDS011;8701;50.150;8.756;2023-06-19T12:08:40;4.30;;;3.60;;
17171;SDS011;8701;50.150;8.756;2023-06-19T12:12:44;3.77;;;3.47;;
17171;SDS011;8701;50.150;8.756;2023-06-19T12:16:46;3.40;;;3.20;;
17171;SDS011;8701;50.150;8.756;2023-06-19T12:20:48;4.90;;;3.40;;
17171;SDS011;8701;50.150;8.756;2023-06-19T12:24:51;4.03;;;3.30;;
17171;SDS011;8701;50.150;8.756;2023-06-19T12:28:54;4.30;;;3.90;;
17171;SDS011;8701;50.150;8.756;2023-06-19T12:32:56;3.90;;;3.40;;
17171;SDS011;8701;50.150;8.756;2023-06-19T12:36:59;3.87;;;3.53;;
17171;SDS011;8701;50.150;8.756;2023-06-19T12:41:01;4.50;;;3.53;;
17171;SDS011;8701;50.150;8.756;2023-06-19T12:45:05;3.83;;;3.40;;
17171;SDS011;8701;50.150;8.756;2023-06-19T12:49:08;4.20;;;3.50;;
17171;SDS011;8701;50.150;8.756;2023-06-19T12:53:10;5.50;;;3.57;;
17171;SDS011;8701;50.150;8.756;2023-06-19T12:57:13;8.40;;;3.83;;
17171;SDS011;8701;50.150;8.756;2023-06-19T13:01:16;3.87;;;3.57;;
17171;SDS011;8701;50.150;8.756;2023-06-19T13:05:19;4.50;;;3.53;;
17171;SDS011;8701;50.150;8.756;2023-06-19T13:09:21;6.13;;;3.50;;
17171;SDS011;8701;50.150;8.756;2023-06-19T13:13:24;6.33;;;3.47;;
17171;SDS011;8701;50.150;8.756;2023-06-19T13:17:28;3.57;;;3.13;;
17171;SDS011;8701;50.150;8.756;2023-06-19T13:21:30;3.63;;;3.33;;
17171;SDS011;8701;50.150;8.756;2023-06-19T13:25:33;3.67;;;3.20;;
17171;SDS011;8701;50.150;8.756;2023-06-19T13:29:35;3.60;;;3.30;;
17171;SDS011;8701;50.150;8.756;2023-06-19T13:33:38;3.73;;;3.43;;
17171;SDS011;8701;50.150;8.756;2023-06-19T13:37:41;4.33;;;3.20;;
17171;SDS011;8701;50.150;8.756;2023-06-19T13:41:46;3.37;;;3.07;;
17171;SDS011;8701;50.150;8.756;2023-06-19T13:45:48;3.53;;;3.20;;
17171;SDS011;8701;50.150;8.756;2023-06-19T13:49:52;5.33;;;3.23;;
17171;SDS011;8701;50.150;8.756;2023-06-19T13:53:54;7.50;;;3.77;;
17171;SDS011;8701;50.150;8.756;2023-06-19T13:57:56;3.10;;;2.90;;
17171;SDS011;8701;50.150;8.756;2023-06-19T14:01:58;8.83;;;3.10;;
17171;SDS011;8701;50.150;8.756;2023-06-19T14:06:02;3.33;;;3.03;;
17171;SDS011;8701;50.150;8.756;2023-06-19T14:10:04;3.33;;;3.10;;
17171;SDS011;8701;50.150;8.756;2023-06-19T14:14:07;4.50;;;3.03;;
17171;SDS011;8701;50.150;8.756;2023-06-19T14:18:09;3.70;;;2.93;;
17171;SDS011;8701;50.150;8.756;2023-06-19T14:22:13;4.27;;;2.60;;
17171;SDS011;8701;50.150;8.756;2023-06-19T14:26:15;4.70;;;3.10;;
17171;SDS011;8701;50.150;8.756;2023-06-19T14:30:17;4.13;;;2.53;;
17171;SDS011;8701;50.150;8.756;2023-06-19T14:34:20;2.80;;;2.47;;
17171;SDS011;8701;50.150;8.756;2023-06-19T14:38:24;4.60;;;2.97;;
17171;SDS011;8701;50.150;8.756;2023-06-19T14:42:31;3.77;;;2.50;;
17171;SDS011;8701;50.150;8.756;2023-06-19T14:46:34;3.20;;;2.90;;
17171;SDS011;8701;50.150;8.756;2023-06-19T14:50:39;2.90;;;2.70;;
17171;SDS011;8701;50.150;8.756;2023-06-19T14:54:43;3.70;;;2.83;;
17171;SDS011;8701;50.150;8.756;2023-06-19T14:58:45;2.90;;;2.70;;
17171;SDS011;8701;50.150;8.756;2023-06-19T15:02:47;9.03;;;6.40;;
17171;SDS011;8701;50.150;8.756;2023-06-19T15:06:49;4.43;;;3.10;;
17171;SDS011;8701;50.150;8.756;2023-06-19T15:10:53;8.23;;;3.60;;
17171;SDS011;8701;50.150;8.756;2023-06-19T15:14:55;4.07;;;3.00;;
17171;SDS011;8701;50.150;8.756;2023-06-19T15:18:58;3.43;;;2.90;;
17171;SDS011;8701;50.150;8.756;2023-06-19T15:23:00;4.67;;;2.77;;
17171;SDS011;8701;50.150;8.756;2023-06-19T15:27:04;3.53;;;2.80;;
17171;SDS011;8701;50.150;8.756;2023-06-19T15:31:07;4.03;;;2.40;;
17171;SDS011;8701;50.150;8.756;2023-06-19T15:35:09;3.10;;;2.80;;
17171;SDS011;8701;50.150;8.756;2023-06-19T15:39:12;3.00;;;2.70;;
17171;SDS011;8701;50.150;8.756;2023-06-19T15:43:15;3.23;;;2.93;;
17171;SDS011;8701;50.150;8.756;2023-06-19T15:47:17;4.47;;;3.93;;
17171;SDS011;8701;50.150;8.756;2023-06-19T15:51:20;3.10;;;2.80;;
17171;SDS011;8701;50.150;8.756;2023-06-19T15:55:22;2.63;;;2.40;;
17171;SDS011;8701;50.150;8.756;2023-06-19T15:59:26;3.00;;;2.77;;
17171;SDS011;8701;50.150;8.756;2023-06-19T16:03:28;4.77;;;2.30;;
17171;SDS011;8701;50.150;8.756;2023-06-19T16:07:32;3.80;;;3.20;;
17171;SDS011;8701;50.150;8.756;2023-06-19T16:11:34;3.20;;;2.90;;
17171;SDS011;8701;50.150;8.756;2023-06-19T16:15:38;4.13;;;3.10;;
17171;SDS011;8701;50.150;8.756;2023-06-19T16:19:40;5.50;;;3.17;;
17171;SDS011;8701;50.150;8.756;2023-06-19T16:23:42;3.23;;;2.93;;
17171;SDS011;8701;50.150;8.756;2023-06-19T16:27:44;4.17;;;3.20;;
17171;SDS011;8701;50.150;8.756;2023-06-19T16:31:48;3.33;;;2.97;;
17171;SDS011;8701;50.150;8.756;2023-06-19T16:35:50;4.83;;;2.77;;
17171;SDS011;8701;50.150;8.756;2023-06-19T16:39:52;2.77;;;2.57;;
17171;SDS011;8701;50.150;8.756;2023-06-19T16:43:54;3.30;;;3.00;;
17171;SDS011;8701;50.150;8.756;2023-06-19T16:47:58;6.73;;;2.63;;
17171;SDS011;8701;50.150;8.756;2023-06-19T16:52:00;3.20;;;2.87;;
17171;SDS011;8701;50.150;8.756;2023-06-19T16:56:03;5.23;;;3.03;;
17171;SDS011;8701;50.150;8.756;2023-06-19T17:00:05;2.60;;;2.40;;
17171;SDS011;8701;50.150;8.756;2023-06-19T17:04:12;4.53;;;3.37;;
17171;SDS011;8701;50.150;8.756;2023-06-19T17:08:14;3.40;;;3.10;;
17171;SDS011;8701;50.150;8.756;2023-06-19T17:12:17;4.23;;;2.93;;
17171;SDS011;8701;50.150;8.756;2023-06-19T17:16:19;4.33;;;3.60;;
17171;SDS011;8701;50.150;8.756;2023-06-19T17:20:23;3.43;;;2.90;;
17171;SDS011;8701;50.150;8.756;2023-06-19T17:24:25;2.80;;;2.60;;
17171;SDS011;8701;50.150;8.756;2023-06-19T17:28:27;3.73;;;2.90;;
17171;SDS011;8701;50.150;8.756;2023-06-19T17:32:30;3.27;;;2.93;;
17171;SDS011;8701;50.150;8.756;2023-06-19T17:36:35;3.50;;;2.80;;
17171;SDS011;8701;50.150;8.756;2023-06-19T17:40:37;5.93;;;3.37;;
17171;SDS011;8701;50.150;8.756;2023-06-19T17:44:39;4.37;;;3.00;;
17171;SDS011;8701;50.150;8.756;2023-06-19T17:48:42;3.40;;;3.10;;
17171;SDS011;8701;50.150;8.756;2023-06-19T17:52:45;3.27;;;2.97;;
17171;SDS011;8701;50.150;8.756;2023-06-19T17:56:47;3.90;;;3.50;;
17171;SDS011;8701;50.150;8.756;2023-06-19T18:00:49;3.60;;;3.10;;
17171;SDS011;8701;50.150;8.756;2023-06-19T18:04:52;5.53;;;3.83;;
17171;SDS011;8701;50.150;8.756;2023-06-19T18:08:55;4.63;;;3.33;;
17171;SDS011;8701;50.150;8.756;2023-06-19T18:12:58;3.73;;;3.43;;
17171;SDS011;8701;50.150;8.756;2023-06-19T18:17:02;3.50;;;3.17;;
17171;SDS011;8701;50.150;8.756;2023-06-19T18:21:05;3.87;;;3.10;;
17171;SDS011;8701;50.150;8.756;2023-06-19T18:25:08;3.40;;;3.00;;
17171;SDS011;8701;50.150;8.756;2023-06-19T18:29:11;3.33;;;3.03;;
17171;SDS011;8701;50.150;8.756;2023-06-19T18:33:13;8.60;;;3.63;;
17171;SDS011;8701;50.150;8.756;2023-06-19T18:37:15;4.63;;;3.27;;
17171;SDS011;8701;50.150;8.756;2023-06-19T18:41:19;5.00;;;3.70;;
17171;SDS011;8701;50.150;8.756;2023-06-19T18:45:21;3.83;;;3.00;;
17171;SDS011;8701;50.150;8.756;2023-06-19T18:49:23;3.20;;;2.90;;
17171;SDS011;8701;50.150;8.756;2023-06-19T18:53:25;6.10;;;3.10;;
17171;SDS011;8701;50.150;8.756;2023-06-19T18:57:29;3.27;;;3.00;;
17171;SDS011;8701;50.150;8.756;2023-06-19T19:01:31;4.47;;;3.60;;
17171;SDS011;8701;50.150;8.756;2023-06-19T19:05:33;3.83;;;3.10;;
17171;SDS011;8701;50.150;8.756;2023-06-19T19:09:36;3.50;;;3.20;;
17171;SDS011;8701;50.150;8.756;2023-06-19T19:13:39;4.90;;;3.53;;
17171;SDS011;8701;50.150;8.756;2023-06-19T19:17:42;4.77;;;3.60;;
17171;SDS011;8701;50.150;8.756;2023-06-19T19:21:44;3.83;;;3.30;;
17171;SDS011;8701;50.150;8.756;2023-06-19T19:25:47;4.40;;;3.30;;
17171;SDS011;8701;50.150;8.756;2023-06-19T19:29:51;6.00;;;3.30;;
17171;SDS011;8701;50.150;8.756;2023-06-19T19:33:53;3.80;;;3.00;;
17171;SDS011;8701;50.150;8.756;2023-06-19T19:37:55;4.03;;;3.60;;
17171;SDS011;8701;50.150;8.756;2023-06-19T19:41:58;3.60;;;3.30;;
17171;SDS011;8701;50.150;8.756;2023-06-19T19:46:01;4.10;;;3.60;;
17171;SDS011;8701;50.150;8.756;2023-06-19T19:50:04;5.50;;;3.93;;
17171;SDS011;8701;50.150;8.756;2023-06-19T19:54:07;4.03;;;3.67;;
17171;SDS011;8701;50.150;8.756;2023-06-19T19:58:09;3.67;;;2.97;;
17171;SDS011;8701;50.150;8.756;2023-06-19T20:02:15;4.27;;;3.60;;
17171;SDS011;8701;50.150;8.756;2023-06-19T20:06:17;5.10;;;3.33;;
17171;SDS011;8701;50.150;8.756;2023-06-19T20:10:19;4.63;;;3.70;;
17171;SDS011;8701;50.150;8.756;2023-06-19T20:14:21;4.23;;;3.60;;
17171;SDS011;8701;50.150;8.756;2023-06-19T20:18:25;8.33;;;4.10;;
17171;SDS011;8701;50.150;8.756;2023-06-19T20:22:27;3.50;;;2.93;;
17171;SDS011;8701;50.150;8.756;2023-06-19T20:26:30;4.93;;;4.03;;
17171;SDS011;8701;50.150;8.756;2023-06-19T20:30:32;3.53;;;2.87;;
17171;SDS011;8701;50.150;8.756;2023-06-19T20:34:36;4.67;;;3.40;;
17171;SDS011;8701;50.150;8.756;2023-06-19T20:38:38;7.20;;;5.03;;
17171;SDS011;8701;50.150;8.756;2023-06-19T20:42:40;4.70;;;4.10;;
17171;SDS011;8701;50.150;8.756;2023-06-19T20:46:42;4.53;;;3.90;;
17171;SDS011;8701;50.150;8.756;2023-06-19T20:50:46;4.20;;;3.40;;
17171;SDS011;8701;50.150;8.756;2023-06-19T20:54:50;3.87;;;3.27;;
17171;SDS011;8701;50.150;8.756;2023-06-19T20:58:52;4.33;;;3.50;;
17171;SDS011;8701;50.150;8.756;2023-06-19T21:02:58;4.77;;;3.97;;
17171;SDS011;8701;50.150;8.756;2023-06-19T21:07:02;3.60;;;3.30;;
17171;SDS011;8701;50.150;8.756;2023-06-19T21:11:04;4.20;;;3.80;;
17171;SDS011;8701;50.150;8.756;2023-06-19T21:15:07;4.37;;;3.33;;
17171;SDS011;8701;50.150;8.756;2023-06-19T21:19:09;12.40;;;3.57;;
17171;SDS011;8701;50.150;8.756;2023-06-19T21:23:13;3.67;;;3.00;;
17171;SDS011;8701;50.150;8.756;2023-06-19T21:27:15;4.60;;;4.10;;
17171;SDS011;8701;50.150;8.756;2023-06-19T21:31:17;5.77;;;4.60;;
17171;SDS011;8701;50.150;8.756;2023-06-19T21:35:20;6.37;;;4.27;;
17171;SDS011;8701;50.150;8.756;2023-06-19T21:39:23;3.70;;;3.20;;
17171;SDS011;8701;50.150;8.756;2023-06-19T21:43:26;4.87;;;3.47;;
17171;SDS011;8701;50.150;8.756;2023-06-19T21:47:28;5.40;;;4.07;;
17171;SDS011;8701;50.150;8.756;2023-06-19T21:51:30;4.47;;;4.07;;
17171;SDS011;8701;50.150;8.756;2023-06-19T21:55:35;3.60;;;3.30;;
17171;SDS011;8701;50.150;8.756;2023-06-19T21:59:37;4.33;;;3.93;;
17171;SDS011;8701;50.150;8.756;2023-06-19T22:03:40;5.83;;;4.10;;
17171;SDS011;8701;50.150;8.756;2023-06-19T22:07:42;4.60;;;4.20;;
17171;SDS011;8701;50.150;8.756;2023-06-19T22:11:45;4.70;;;4.03;;
17171;SDS011;8701;50.150;8.756;2023-06-19T22:15:47;6.30;;;4.73;;
17171;SDS011;8701;50.150;8.756;2023-06-19T22:19:51;6.80;;;4.50;;
17171;SDS011;8701;50.150;8.756;2023-06-19T22:23:53;9.67;;;4.53;;
17171;SDS011;8701;50.150;8.756;2023-06-19T22:27:56;6.80;;;4.07;;
17171;SDS011;8701;50.150;8.756;2023-06-19T22:31:59;7.80;;;4.17;;
17171;SDS011;8701;50.150;8.756;2023-06-19T22:36:01;5.33;;;4.30;;
17171;SDS011;8701;50.150;8.756;2023-06-19T22:40:04;6.10;;;4.40;;
17171;SDS011;8701;50.150;8.756;2023-06-19T22:44:09;4.30;;;3.67;;
17171;SDS011;8701;50.150;8.756;2023-06-19T22:48:11;6.03;;;3.97;;
17171;SDS011;8701;50.150;8.756;2023-06-19T22:52:13;5.47;;;3.97;;
17171;SDS011;8701;50.150;8.756;2023-06-19T22:56:15;4.53;;;4.10;;
17171;SDS011;8701;50.150;8.756;2023-06-19T23:00:19;5.40;;;3.67;;
17171;SDS011;8701;50.150;8.756;2023-06-19T23:04:22;5.20;;;4.33;;
17171;SDS011;8701;50.150;8.756;2023-06-19T23:08:24;4.50;;;4.10;;
17171;SDS011;8701;50.150;8.756;2023-06-19T23:12:26;4.17;;;3.63;;
17171;SDS011;8701;50.150;8.756;2023-06-19T23:16:30;5.83;;;4.63;;
17171;SDS011;8701;50.150;8.756;2023-06-19T23:20:32;4.10;;;3.70;;
17171;SDS011;8701;50.150;8.756;2023-06-19T23:24:35;5.23;;;3.67;;
17171;SDS011;8701;50.150;8.756;2023-06-19T23:28:37;4.33;;;3.60;;
17171;SDS011;8701;50.150;8.756;2023-06-19T23:32:40;3.80;;;3.37;;
17171;SDS011;8701;50.150;8.756;2023-06-19T23:36:42;4.73;;;4.33;;
17171;SDS011;8701;50.150;8.756;2023-06-19T23:40:45;4.63;;;4.20;;
17171;SDS011;8701;50.150;8.756;2023-06-19T23:44:47;3.90;;;3.50;;
17171;SDS011;8701;50.150;8.756;2023-06-19T23:48:51;5.00;;;4.50;;
17171;SDS011;8701;50.150;8.756;2023-06-19T23:52:54;5.07;;;4.53;;
17171;SDS011;8701;50.150;8.756;2023-06-19T23:56:56;4.23;;;3.83;;
